createdAt,value
2023-02-14T04:45:24.984Z,2.50
2023-02-14T04:47:51.659Z,2.50
2023-02-14T04:50:18.552Z,2.50
2023-02-14T04:52:45.180Z,2.60
2023-02-14T04:55:11.924Z,2.60
2023-02-14T04:57:38.639Z,2.70
2023-02-14T05:00:06.043Z,2.60
2023-02-14T05:02:32.673Z,2.70
2023-02-14T05:04:59.299Z,2.70
2023-02-14T05:07:26.086Z,2.70
2023-02-14T05:09:52.721Z,2.60
2023-02-14T05:12:19.445Z,2.60
2023-02-14T05:14:46.710Z,2.60
2023-02-14T05:17:13.343Z,2.60
2023-02-14T05:19:40.006Z,2.60
2023-02-14T05:22:06.697Z,2.60
2023-02-14T05:24:33.426Z,2.60
2023-02-14T05:27:00.099Z,2.60
2023-02-14T05:29:26.853Z,2.50
2023-02-14T05:31:53.791Z,2.40
2023-02-14T05:34:21.813Z,2.40
2023-02-14T05:36:48.690Z,2.40
2023-02-14T05:39:15.449Z,2.30
2023-02-14T05:41:42.161Z,2.10
2023-02-14T05:44:08.866Z,2.20
2023-02-14T05:46:35.471Z,2.00
2023-02-14T05:49:02.175Z,1.90
2023-02-14T05:51:28.791Z,2.10
2023-02-14T05:53:55.379Z,2.10
2023-02-14T05:56:21.979Z,2.20
2023-02-14T05:58:48.576Z,2.40
2023-02-14T06:01:15.235Z,2.40
2023-02-14T06:03:41.815Z,2.50
2023-02-14T06:06:08.437Z,2.60
2023-02-14T06:08:35.098Z,2.60
2023-02-14T06:11:02.014Z,2.60
2023-02-14T06:13:28.932Z,2.50
2023-02-14T06:15:55.540Z,2.40
2023-02-14T06:18:22.194Z,2.30
2023-02-14T06:20:48.909Z,2.30
2023-02-14T06:23:15.549Z,2.40
2023-02-14T06:25:42.301Z,2.50
2023-02-14T06:28:08.916Z,2.50
2023-02-14T06:30:35.669Z,2.60
2023-02-14T06:33:02.399Z,2.70
2023-02-14T06:35:29.089Z,2.70
2023-02-14T06:37:55.741Z,2.70
2023-02-14T06:40:22.563Z,2.70
2023-02-14T06:42:49.311Z,2.60
2023-02-14T06:45:16.050Z,2.60
2023-02-14T06:47:42.771Z,2.50
2023-02-14T06:50:11.635Z,2.60
2023-02-14T06:52:38.563Z,2.60
2023-02-14T06:55:05.627Z,2.50
2023-02-14T06:57:32.332Z,2.60
2023-02-14T06:59:59.035Z,2.50
2023-02-14T07:02:25.753Z,2.50
2023-02-14T07:04:52.502Z,2.50
2023-02-14T07:07:19.248Z,2.60
2023-02-14T07:09:45.901Z,2.60
2023-02-14T07:12:12.509Z,2.60
2023-02-14T07:14:39.141Z,2.60
2023-02-14T07:17:05.808Z,2.70
2023-02-14T07:19:32.398Z,2.70
2023-02-14T07:21:59.052Z,2.70
2023-02-14T07:24:26.819Z,2.80
2023-02-14T07:26:53.456Z,2.80
2023-02-14T07:29:20.119Z,2.90
2023-02-14T07:31:46.874Z,2.80
2023-02-14T07:34:13.658Z,2.90
2023-02-14T07:36:40.505Z,2.80
2023-02-14T07:39:07.412Z,2.80
2023-02-14T07:41:34.140Z,2.90
2023-02-14T07:44:00.766Z,2.80
2023-02-14T07:46:27.523Z,2.90
2023-02-14T07:48:54.197Z,2.90
2023-02-14T07:51:20.885Z,2.80
2023-02-14T07:53:47.509Z,2.80
2023-02-14T07:56:14.214Z,2.60
2023-02-14T07:58:40.979Z,2.70
2023-02-14T08:01:07.880Z,2.80
2023-02-14T08:03:34.537Z,2.80
2023-02-14T08:06:01.220Z,2.90
2023-02-14T08:08:29.828Z,3.00
2023-02-14T08:10:57.012Z,3.10
2023-02-14T08:13:23.736Z,3.20
2023-02-14T08:16:05.545Z,3.10
2023-02-14T08:18:36.158Z,3.20
2023-02-14T08:21:04.694Z,3.30
2023-02-14T08:23:31.450Z,3.20
2023-02-14T08:25:58.468Z,3.30
2023-02-14T08:28:25.985Z,3.20
2023-02-14T08:30:53.646Z,3.20
2023-02-14T08:33:21.208Z,3.10
2023-02-14T08:35:48.353Z,3.10
2023-02-14T08:38:15.195Z,3.00
2023-02-14T08:40:42.112Z,3.00
2023-02-14T08:43:09.425Z,2.90
2023-02-14T08:45:36.396Z,2.90
2023-02-14T08:48:05.324Z,3.00
2023-02-14T08:50:32.485Z,3.00
2023-02-14T08:52:59.333Z,2.90
2023-02-14T08:55:27.475Z,2.90
2023-02-14T08:57:57.995Z,3.00
2023-02-14T09:00:24.796Z,2.90
2023-02-14T09:02:52.667Z,3.00
2023-02-14T09:05:21.153Z,3.20
2023-02-14T09:07:47.904Z,3.30
2023-02-14T09:10:14.578Z,3.40
2023-02-14T09:12:42.056Z,3.50
2023-02-14T09:15:10.149Z,3.60
2023-02-14T09:17:37.601Z,3.60
2023-02-14T09:20:06.940Z,3.60
2023-02-14T09:22:34.584Z,3.60
2023-02-14T09:25:01.463Z,3.60
2023-02-14T09:27:28.568Z,3.50
2023-02-14T09:29:55.304Z,3.50
2023-02-14T09:32:22.072Z,3.70
2023-02-14T09:34:48.697Z,3.70
2023-02-14T09:37:33.794Z,3.60
2023-02-14T09:40:00.433Z,3.40
2023-02-14T09:42:38.982Z,3.40
2023-02-14T09:45:15.796Z,3.30
2023-02-14T09:47:54.396Z,3.20
2023-02-14T09:50:42.015Z,3.50
2023-02-14T09:53:16.518Z,3.80
2023-02-14T09:56:01.310Z,3.90
2023-02-14T09:58:36.785Z,3.90
2023-02-14T10:01:13.463Z,3.80
2023-02-14T10:04:04.147Z,4.00
2023-02-14T10:06:46.392Z,4.00
2023-02-14T10:09:16.020Z,4.10
2023-02-14T10:11:46.118Z,4.10
2023-02-14T10:14:18.704Z,4.10
2023-02-14T10:17:04.016Z,4.20
2023-02-14T10:19:43.234Z,4.30
2023-02-14T10:22:15.212Z,4.40
2023-02-14T10:24:49.258Z,4.40
2023-02-14T10:27:40.285Z,4.60
2023-02-14T10:30:21.589Z,4.60
2023-02-14T10:33:18.544Z,4.70
2023-02-14T10:35:58.668Z,4.60
2023-02-14T10:38:40.765Z,4.60
2023-02-14T10:41:10.431Z,4.50
2023-02-14T10:43:53.392Z,4.50
2023-02-14T10:46:34.704Z,4.40
2023-02-14T10:49:25.756Z,4.60
2023-02-14T10:52:29.274Z,4.70
2023-02-14T10:54:59.474Z,4.60
2023-02-14T10:57:37.173Z,4.60
2023-02-14T11:00:23.405Z,4.50
2023-02-14T11:02:54.036Z,4.70
2023-02-14T11:05:28.458Z,4.50
2023-02-14T11:07:56.457Z,4.40
2023-02-14T11:10:27.221Z,4.50
2023-02-14T11:12:54.065Z,4.60
2023-02-14T11:15:27.687Z,4.40
2023-02-14T11:18:25.273Z,4.40
2023-02-14T11:21:06.964Z,4.60
2023-02-14T11:23:36.783Z,4.40
2023-02-14T11:26:24.958Z,4.60
2023-02-14T11:28:58.186Z,4.60
2023-02-14T11:31:35.875Z,4.60
2023-02-14T11:34:06.296Z,4.80
2023-02-14T11:36:40.929Z,4.60
2023-02-14T11:39:24.451Z,4.80
2023-02-14T11:41:58.079Z,5.00
2023-02-14T11:44:27.723Z,5.00
2023-02-14T11:46:56.822Z,4.80
2023-02-14T11:49:34.946Z,4.80
2023-02-14T11:52:11.671Z,4.50
2023-02-14T11:54:41.062Z,4.60
2023-02-14T11:57:21.686Z,4.60
2023-02-14T11:59:53.235Z,4.50
2023-02-14T12:02:40.461Z,4.60
2023-02-14T12:05:33.633Z,4.80
2023-02-14T12:08:03.216Z,4.80
2023-02-14T12:10:35.214Z,4.80
2023-02-14T12:13:07.692Z,5.00
2023-02-14T12:15:52.831Z,5.00
2023-02-14T12:18:25.157Z,5.00
2023-02-14T12:21:12.835Z,5.10
2023-02-14T12:23:52.170Z,5.00
2023-02-14T12:26:21.986Z,5.00
2023-02-14T12:28:58.132Z,5.10
2023-02-14T12:31:25.459Z,5.20
2023-02-14T12:33:52.413Z,5.00
2023-02-14T12:36:49.482Z,5.00
2023-02-14T12:39:31.094Z,5.20
2023-02-14T12:42:26.044Z,5.40
2023-02-14T12:45:08.336Z,5.60
2023-02-14T12:47:40.721Z,5.70
2023-02-14T12:50:22.324Z,5.80
2023-02-14T12:53:05.671Z,5.70
2023-02-14T12:55:41.142Z,5.80
2023-02-14T12:58:29.710Z,5.80
2023-02-14T13:01:08.484Z,5.70
2023-02-14T13:04:13.532Z,5.70
2023-02-14T13:06:56.891Z,5.60
2023-02-14T13:09:29.704Z,5.70
2023-02-14T13:12:27.698Z,5.80
2023-02-14T13:15:16.971Z,5.80
2023-02-14T13:17:50.824Z,6.00
2023-02-14T13:20:28.540Z,6.00
2023-02-14T13:22:57.328Z,6.20
2023-02-14T13:25:23.983Z,6.30
2023-02-14T13:27:51.219Z,6.30
2023-02-14T13:30:21.835Z,6.30
2023-02-14T13:32:51.170Z,6.20
2023-02-14T13:35:21.521Z,6.30
2023-02-14T13:38:00.055Z,6.50
2023-02-14T13:40:28.374Z,6.50
2023-02-14T13:42:59.534Z,6.50
2023-02-14T13:45:32.039Z,6.30
2023-02-14T13:48:19.596Z,6.30
2023-02-14T13:50:54.771Z,6.50
2023-02-14T13:53:43.390Z,6.50
2023-02-14T13:56:13.154Z,6.60
2023-02-14T13:58:56.081Z,6.70
2023-02-14T14:01:32.405Z,6.70
2023-02-14T14:04:01.777Z,6.60
2023-02-14T14:06:28.899Z,6.70
2023-02-14T14:08:57.099Z,6.60
2023-02-14T14:11:23.706Z,6.40
2023-02-14T14:14:01.636Z,6.30
2023-02-14T14:16:35.143Z,6.00
2023-02-14T14:19:09.364Z,6.00
2023-02-14T14:21:41.666Z,5.80
2023-02-14T14:24:22.865Z,5.80
2023-02-14T14:27:22.640Z,5.80
2023-02-14T14:30:07.477Z,5.90
2023-02-14T14:32:36.635Z,5.90
2023-02-14T14:35:16.584Z,6.00
2023-02-14T14:37:52.617Z,6.20
2023-02-14T14:40:29.964Z,6.00
2023-02-14T14:43:09.828Z,6.00
2023-02-14T14:45:36.484Z,6.20
2023-02-14T14:48:10.196Z,6.30
2023-02-14T14:50:36.966Z,6.20
2023-02-14T14:53:09.368Z,6.10
2023-02-14T14:55:39.358Z,6.20
2023-02-14T14:58:10.854Z,6.20
2023-02-14T15:00:42.388Z,6.10
2023-02-14T15:03:12.117Z,6.10
2023-02-14T15:05:47.942Z,6.10
2023-02-14T15:08:30.787Z,6.20
2023-02-14T15:11:02.070Z,6.20
2023-02-14T15:13:49.390Z,6.10
2023-02-14T15:16:48.419Z,6.00
2023-02-14T15:19:38.631Z,5.90
2023-02-14T15:22:07.764Z,5.90
2023-02-14T15:24:38.232Z,6.00
2023-02-14T15:27:05.225Z,6.10
2023-02-14T15:29:33.264Z,6.30
2023-02-14T15:32:04.201Z,6.30
2023-02-14T15:34:35.997Z,6.30
2023-02-14T15:37:06.255Z,6.30
2023-02-14T15:39:37.769Z,6.30
2023-02-14T15:42:05.931Z,6.30
2023-02-14T15:44:32.955Z,6.10
2023-02-14T15:47:03.740Z,6.10
2023-02-14T15:49:34.858Z,6.00
2023-02-14T15:52:04.434Z,6.00
2023-02-14T15:54:31.201Z,6.10
2023-02-14T15:56:58.783Z,6.10
2023-02-14T15:59:30.876Z,5.80
2023-02-14T16:02:14.859Z,5.80
2023-02-14T16:04:41.654Z,5.80
2023-02-14T16:07:28.102Z,5.80
2023-02-14T16:10:33.306Z,5.80
2023-02-14T16:13:17.531Z,5.80
2023-02-14T16:16:02.382Z,5.80
2023-02-14T16:18:41.078Z,5.80
2023-02-14T16:21:18.217Z,5.80
2023-02-14T16:24:06.793Z,5.70
2023-02-14T16:26:44.215Z,5.60
2023-02-14T16:29:16.327Z,5.60
2023-02-14T16:32:16.231Z,5.50
2023-02-14T16:34:43.444Z,5.40
2023-02-14T16:37:23.881Z,5.30
2023-02-14T16:39:52.881Z,5.20
2023-02-14T16:42:19.701Z,5.30
2023-02-14T16:44:47.335Z,5.20
2023-02-14T16:47:15.656Z,5.20
2023-02-14T16:49:42.351Z,5.30
2023-02-14T16:52:18.419Z,5.10
2023-02-14T16:54:45.453Z,5.20
2023-02-14T16:57:23.788Z,5.10
2023-02-14T16:59:50.957Z,5.10
2023-02-14T17:02:19.013Z,5.20
2023-02-14T17:04:45.772Z,5.10
2023-02-14T17:07:14.237Z,5.10
2023-02-14T17:09:47.573Z,5.00
2023-02-14T17:12:20.955Z,4.80
2023-02-14T17:14:51.595Z,4.80
2023-02-14T17:17:18.564Z,4.90
2023-02-14T17:19:45.382Z,4.90
2023-02-14T17:22:13.580Z,4.80
2023-02-14T17:24:41.088Z,4.90
2023-02-14T17:27:08.515Z,5.00
2023-02-14T17:29:35.166Z,4.90
2023-02-14T17:32:01.944Z,5.00
2023-02-14T17:34:32.243Z,5.00
2023-02-14T17:36:59.554Z,5.00
2023-02-14T17:39:26.308Z,4.90
2023-02-14T17:41:53.165Z,4.70
2023-02-14T17:44:19.803Z,4.60
2023-02-14T17:46:46.561Z,4.60
2023-02-14T17:49:13.237Z,4.80
2023-02-14T17:51:39.911Z,4.80
2023-02-14T17:54:06.545Z,4.80
2023-02-14T17:56:33.187Z,4.90
2023-02-14T17:58:59.956Z,4.70
2023-02-14T18:01:31.523Z,4.40
2023-02-14T18:03:58.517Z,4.40
2023-02-14T18:06:26.600Z,4.40
2023-02-14T18:08:56.648Z,4.40
2023-02-14T18:11:26.449Z,4.40
2023-02-14T18:13:55.132Z,4.40
2023-02-14T18:16:22.318Z,4.40
2023-02-14T18:18:48.959Z,4.40
2023-02-14T18:21:17.072Z,4.40
2023-02-14T18:23:43.800Z,4.40
2023-02-14T18:26:13.156Z,4.20
2023-02-14T18:28:40.238Z,4.10
2023-02-14T18:31:13.468Z,4.20
2023-02-14T18:33:40.678Z,4.30
2023-02-14T18:36:11.962Z,4.30
2023-02-14T18:38:42.650Z,4.40
2023-02-14T18:41:11.825Z,4.10
2023-02-14T18:43:40.941Z,4.00
2023-02-14T18:46:29.791Z,3.80
2023-02-14T18:48:57.621Z,3.80
2023-02-14T18:51:30.320Z,3.90
2023-02-14T18:53:58.914Z,3.90
2023-02-14T18:56:28.913Z,3.90
2023-02-14T18:59:01.337Z,4.00
2023-02-14T19:01:36.654Z,4.20
2023-02-14T19:04:05.943Z,4.10
2023-02-14T19:06:33.963Z,4.20
2023-02-14T19:09:01.729Z,4.20
2023-02-14T19:11:31.562Z,4.00
2023-02-14T19:14:00.756Z,3.90
2023-02-14T19:16:30.772Z,4.00
2023-02-14T19:18:59.045Z,4.00
2023-02-14T19:21:30.397Z,4.00
2023-02-14T19:23:58.012Z,4.00
2023-02-14T19:26:32.642Z,3.90
2023-02-14T19:29:01.689Z,3.80
2023-02-14T19:31:28.903Z,3.90
2023-02-14T19:33:55.662Z,3.90
2023-02-14T19:36:23.671Z,3.70
2023-02-14T19:38:52.753Z,3.50
2023-02-14T19:41:27.860Z,3.40
2023-02-14T19:43:58.918Z,3.40
2023-02-14T19:46:27.971Z,3.30
2023-02-14T19:48:56.638Z,3.20
2023-02-14T19:51:25.753Z,3.40
2023-02-14T19:53:53.929Z,3.40
2023-02-14T19:56:29.296Z,3.50
2023-02-14T19:58:56.534Z,3.50
2023-02-14T20:01:26.890Z,3.70
2023-02-14T20:03:53.845Z,3.70
2023-02-14T20:06:21.929Z,3.60
2023-02-14T20:08:48.892Z,3.50
2023-02-14T20:11:31.978Z,3.30
2023-02-14T20:13:59.574Z,3.10
2023-02-14T20:16:28.657Z,3.10
2023-02-14T20:18:55.954Z,2.80
2023-02-14T20:21:25.506Z,2.60
2023-02-14T20:23:52.392Z,2.70
2023-02-14T20:26:19.134Z,2.80
2023-02-14T20:28:45.900Z,3.00
2023-02-14T20:31:15.390Z,3.10
2023-02-14T20:33:42.196Z,3.00
2023-02-14T20:36:09.617Z,3.00
2023-02-14T20:38:36.272Z,3.10
2023-02-14T20:41:11.168Z,3.10
2023-02-14T20:43:38.792Z,3.10
2023-02-14T20:46:07.442Z,3.10
2023-02-14T20:48:35.299Z,3.10
2023-02-14T20:51:21.515Z,3.10
2023-02-14T20:53:48.305Z,3.00
2023-02-14T20:56:15.889Z,3.00
2023-02-14T20:58:43.151Z,2.80
2023-02-14T21:01:14.619Z,2.80
2023-02-14T21:03:43.333Z,2.80
2023-02-14T21:06:13.978Z,2.70
2023-02-14T21:08:42.413Z,2.80
2023-02-14T21:11:10.672Z,2.80
2023-02-14T21:13:37.560Z,2.80
2023-02-14T21:16:12.375Z,2.80
2023-02-14T21:18:39.155Z,2.80
2023-02-14T21:21:07.801Z,2.90
2023-02-14T21:23:34.523Z,2.90
2023-02-14T21:26:01.129Z,2.90
2023-02-14T21:28:27.828Z,2.80
2023-02-14T21:31:06.132Z,2.80
2023-02-14T21:33:33.013Z,2.60
2023-02-14T21:36:14.006Z,2.60
2023-02-14T21:38:41.161Z,2.60
2023-02-14T21:41:12.547Z,2.70
2023-02-14T21:43:42.308Z,2.70
2023-02-14T21:46:14.573Z,2.70
2023-02-14T21:49:00.237Z,2.60
2023-02-14T21:51:30.271Z,2.60
2023-02-14T21:53:57.322Z,2.50
2023-02-14T21:56:24.046Z,2.60
2023-02-14T21:58:52.869Z,2.50
2023-02-14T22:01:22.634Z,2.50
2023-02-14T22:03:49.756Z,2.30
2023-02-14T22:06:16.958Z,2.20
2023-02-14T22:08:43.845Z,2.20
2023-02-14T22:11:13.639Z,2.10
2023-02-14T22:13:42.715Z,2.20
2023-02-14T22:16:14.797Z,2.10
2023-02-14T22:18:42.208Z,2.10
2023-02-14T22:21:16.374Z,2.20
2023-02-14T22:23:43.278Z,2.20
2023-02-14T22:26:15.635Z,2.30
2023-02-14T22:28:43.918Z,2.30
2023-02-14T22:31:11.311Z,2.00
2023-02-14T22:33:38.659Z,2.10
2023-02-14T22:36:06.869Z,2.10
2023-02-14T22:38:34.136Z,1.90
2023-02-14T22:41:09.431Z,2.00
2023-02-14T22:43:37.406Z,2.10
2023-02-14T22:46:06.562Z,2.10
2023-02-14T22:48:35.102Z,2.10
2023-02-14T22:51:22.704Z,2.10
2023-02-14T22:53:51.255Z,2.20
2023-02-14T22:56:24.381Z,2.10
2023-02-14T22:58:59.467Z,2.00
2023-02-14T23:01:26.951Z,1.90
2023-02-14T23:03:58.333Z,1.60
2023-02-14T23:06:26.973Z,1.60
2023-02-14T23:08:54.698Z,1.70
2023-02-14T23:11:23.708Z,1.80
2023-02-14T23:14:08.978Z,1.80
2023-02-14T23:16:54.384Z,1.80
2023-02-14T23:19:45.434Z,1.70
2023-02-14T23:22:16.170Z,1.80
2023-02-14T23:24:42.967Z,1.80
2023-02-14T23:27:10.688Z,1.70
2023-02-14T23:29:37.558Z,1.80
2023-02-14T23:32:08.375Z,1.60
2023-02-14T23:34:37.745Z,1.40
2023-02-14T23:37:04.840Z,1.20
2023-02-14T23:39:36.622Z,1.20
2023-02-14T23:42:08.681Z,1.20
2023-02-14T23:44:35.768Z,1.20
2023-02-14T23:47:04.976Z,0.90
2023-02-14T23:49:33.320Z,0.80
2023-02-14T23:52:00.170Z,0.60
2023-02-14T23:54:26.911Z,0.40
2023-02-14T23:56:54.766Z,0.20
2023-02-14T23:59:22.178Z,0.50
